Garibaldi, Canada
Current Conditions -  °F | °C
As of 2:00 AM on Monday 22 Dec 2014 (Local Time) from CYVR Reporting Station
Clear Clear  
Wind Chill: 37°   Ceiling: Unl
Heat Index: 43°   Visibility: 15mi
Dew Point: 41°   Wind: 12mph
Humidity: 93%   Direction: 270°W
Pressure: 30.13"   Gusts: NA
Location:  49.98°N, 123.15°W
Report Text: CYVR 221000Z 27010KT 15SM SKC 06/05 A3013 RMK SLP202
Loading
Personal Weather Stations






























Interactive Weather Map New forecast layout! Learn more

10-Day Weather Forecast

Advertisements
Track Severe Weather on mobile